sensor_id;sensor_type;location;lat;lon;timestamp;temperature;humidity
72326;DHT22;60278;47.980;18.780;2022-09-09T00:00:14;17.88;85.45
72326;DHT22;60278;47.980;18.780;2022-09-09T00:07:48;17.77;85.56
72326;DHT22;60278;47.980;18.780;2022-09-09T00:11:26;17.71;85.91
72326;DHT22;60278;47.980;18.780;2022-09-09T00:15:02;17.64;86.63
72326;DHT22;60278;47.980;18.780;2022-09-09T00:22:22;17.46;87.28
72326;DHT22;60278;47.980;18.780;2022-09-09T00:29:41;17.37;87.34
72326;DHT22;60278;47.980;18.780;2022-09-09T00:33:15;17.46;87.24
72326;DHT22;60278;47.980;18.780;2022-09-09T00:36:49;17.47;86.85
72326;DHT22;60278;47.980;18.780;2022-09-09T00:40:27;17.34;87.85
72326;DHT22;60278;47.980;18.780;2022-09-09T00:47:46;17.50;86.48
72326;DHT22;60278;47.980;18.780;2022-09-09T00:55:41;17.19;88.04
72326;DHT22;60278;47.980;18.780;2022-09-09T01:03:51;17.26;87.93
72326;DHT22;60278;47.980;18.780;2022-09-09T01:07:24;17.33;87.67
72326;DHT22;60278;47.980;18.780;2022-09-09T01:10:56;17.27;88.70
72326;DHT22;60278;47.980;18.780;2022-09-09T01:14:40;17.23;87.85
72326;DHT22;60278;47.980;18.780;2022-09-09T01:18:16;17.24;88.16
72326;DHT22;60278;47.980;18.780;2022-09-09T01:22:03;17.03;88.55
72326;DHT22;60278;47.980;18.780;2022-09-09T01:29:40;17.18;88.37
72326;DHT22;60278;47.980;18.780;2022-09-09T01:33:17;17.18;88.28
72326;DHT22;60278;47.980;18.780;2022-09-09T01:37:04;17.27;87.76
72326;DHT22;60278;47.980;18.780;2022-09-09T01:40:37;17.18;88.38
72326;DHT22;60278;47.980;18.780;2022-09-09T01:44:08;16.96;89.04
72326;DHT22;60278;47.980;18.780;2022-09-09T01:47:43;16.89;89.14
72326;DHT22;60278;47.980;18.780;2022-09-09T01:51:23;17.00;89.02
72326;DHT22;60278;47.980;18.780;2022-09-09T01:54:55;16.88;89.44
72326;DHT22;60278;47.980;18.780;2022-09-09T02:10:02;16.69;90.62
72326;DHT22;60278;47.980;18.780;2022-09-09T02:13:38;16.60;90.38
72326;DHT22;60278;47.980;18.780;2022-09-09T02:17:16;16.69;89.68
72326;DHT22;60278;47.980;18.780;2022-09-09T02:21:05;16.76;89.69
72326;DHT22;60278;47.980;18.780;2022-09-09T02:24:39;16.62;89.74
72326;DHT22;60278;47.980;18.780;2022-09-09T02:28:23;16.44;91.02
72326;DHT22;60278;47.980;18.780;2022-09-09T02:31:59;16.40;91.20
72326;DHT22;60278;47.980;18.780;2022-09-09T02:35:37;16.44;90.81
72326;DHT22;60278;47.980;18.780;2022-09-09T02:39:10;16.21;91.13
72326;DHT22;60278;47.980;18.780;2022-09-09T02:42:46;16.21;91.49
72326;DHT22;60278;47.980;18.780;2022-09-09T02:50:02;16.07;91.98
72326;DHT22;60278;47.980;18.780;2022-09-09T02:57:28;16.21;91.45
72326;DHT22;60278;47.980;18.780;2022-09-09T03:01:01;16.32;91.07
72326;DHT22;60278;47.980;18.780;2022-09-09T03:04:35;16.17;91.80
72326;DHT22;60278;47.980;18.780;2022-09-09T03:08:06;15.99;92.12
72326;DHT22;60278;47.980;18.780;2022-09-09T03:11:38;15.86;92.89
72326;DHT22;60278;47.980;18.780;2022-09-09T03:15:09;15.90;92.31
72326;DHT22;60278;47.980;18.780;2022-09-09T03:18:42;15.67;93.43
72326;DHT22;60278;47.980;18.780;2022-09-09T03:22:16;15.79;92.68
72326;DHT22;60278;47.980;18.780;2022-09-09T03:25:49;15.78;92.70
72326;DHT22;60278;47.980;18.780;2022-09-09T03:29:23;15.66;93.08
72326;DHT22;60278;47.980;18.780;2022-09-09T03:32:57;15.67;93.19
72326;DHT22;60278;47.980;18.780;2022-09-09T03:36:33;15.65;92.71
72326;DHT22;60278;47.980;18.780;2022-09-09T03:40:05;15.43;93.69
72326;DHT22;60278;47.980;18.780;2022-09-09T03:43:37;15.48;93.65
72326;DHT22;60278;47.980;18.780;2022-09-09T03:47:09;15.51;93.27
72326;DHT22;60278;47.980;18.780;2022-09-09T03:50:48;15.48;93.37
72326;DHT22;60278;47.980;18.780;2022-09-09T03:54:19;15.45;93.67
72326;DHT22;60278;47.980;18.780;2022-09-09T03:57:50;15.34;93.79
72326;DHT22;60278;47.980;18.780;2022-09-09T04:01:23;15.43;93.09
72326;DHT22;60278;47.980;18.780;2022-09-09T04:04:54;15.48;93.35
72326;DHT22;60278;47.980;18.780;2022-09-09T04:08:25;15.36;93.57
72326;DHT22;60278;47.980;18.780;2022-09-09T04:11:56;15.53;91.82
72326;DHT22;60278;47.980;18.780;2022-09-09T04:15:27;15.20;93.76
72326;DHT22;60278;47.980;18.780;2022-09-09T04:18:59;15.20;93.94
72326;DHT22;60278;47.980;18.780;2022-09-09T04:22:32;15.12;94.13
72326;DHT22;60278;47.980;18.780;2022-09-09T04:26:04;15.34;93.75
72326;DHT22;60278;47.980;18.780;2022-09-09T04:29:37;15.53;93.09
72326;DHT22;60278;47.980;18.780;2022-09-09T04:33:10;15.52;93.03
72326;DHT22;60278;47.980;18.780;2022-09-09T04:36:41;15.48;92.87
72326;DHT22;60278;47.980;18.780;2022-09-09T04:40:13;15.42;93.14
72326;DHT22;60278;47.980;18.780;2022-09-09T04:43:45;15.31;93.73
72326;DHT22;60278;47.980;18.780;2022-09-09T04:47:18;15.30;94.17
72326;DHT22;60278;47.980;18.780;2022-09-09T04:54:31;15.45;93.41
72326;DHT22;60278;47.980;18.780;2022-09-09T04:58:04;15.41;93.66
72326;DHT22;60278;47.980;18.780;2022-09-09T05:01:36;15.46;93.45
72326;DHT22;60278;47.980;18.780;2022-09-09T05:05:09;15.46;93.44
72326;DHT22;60278;47.980;18.780;2022-09-09T05:08:43;15.58;93.39
72326;DHT22;60278;47.980;18.780;2022-09-09T05:12:15;15.69;93.14
72326;DHT22;60278;47.980;18.780;2022-09-09T05:15:54;15.66;93.18
72326;DHT22;60278;47.980;18.780;2022-09-09T05:19:26;15.66;93.49
72326;DHT22;60278;47.980;18.780;2022-09-09T05:22:58;15.66;93.83
72326;DHT22;60278;47.980;18.780;2022-09-09T05:26:33;15.74;93.52
72326;DHT22;60278;47.980;18.780;2022-09-09T05:30:06;15.76;93.35
72326;DHT22;60278;47.980;18.780;2022-09-09T05:33:40;15.91;92.92
72326;DHT22;60278;47.980;18.780;2022-09-09T05:37:11;15.99;92.95
72326;DHT22;60278;47.980;18.780;2022-09-09T05:40:49;15.99;93.23
72326;DHT22;60278;47.980;18.780;2022-09-09T05:44:21;16.04;92.81
72326;DHT22;60278;47.980;18.780;2022-09-09T05:47:54;16.13;92.76
72326;DHT22;60278;47.980;18.780;2022-09-09T05:51:28;16.07;93.06
72326;DHT22;60278;47.980;18.780;2022-09-09T05:55:02;16.16;92.70
72326;DHT22;60278;47.980;18.780;2022-09-09T05:58:35;16.35;92.28
72326;DHT22;60278;47.980;18.780;2022-09-09T06:02:09;16.44;92.37
72326;DHT22;60278;47.980;18.780;2022-09-09T06:05:41;16.62;92.29
72326;DHT22;60278;47.980;18.780;2022-09-09T06:09:12;16.79;91.62
72326;DHT22;60278;47.980;18.780;2022-09-09T06:12:46;16.95;91.55
72326;DHT22;60278;47.980;18.780;2022-09-09T06:16:19;17.00;91.45
72326;DHT22;60278;47.980;18.780;2022-09-09T06:19:50;17.13;91.35
72326;DHT22;60278;47.980;18.780;2022-09-09T06:23:25;17.27;90.11
72326;DHT22;60278;47.980;18.780;2022-09-09T06:26:56;17.40;90.52
72326;DHT22;60278;47.980;18.780;2022-09-09T06:30:32;17.37;89.78
72326;DHT22;60278;47.980;18.780;2022-09-09T06:34:07;17.46;89.95
72326;DHT22;60278;47.980;18.780;2022-09-09T06:37:39;17.49;90.01
72326;DHT22;60278;47.980;18.780;2022-09-09T06:41:12;17.51;90.39
72326;DHT22;60278;47.980;18.780;2022-09-09T06:44:45;17.78;89.00
72326;DHT22;60278;47.980;18.780;2022-09-09T06:48:22;18.52;87.28
72326;DHT22;60278;47.980;18.780;2022-09-09T06:51:54;18.89;85.27
72326;DHT22;60278;47.980;18.780;2022-09-09T06:55:25;19.34;83.84
72326;DHT22;60278;47.980;18.780;2022-09-09T06:58:59;19.44;82.98
72326;DHT22;60278;47.980;18.780;2022-09-09T07:02:34;19.42;83.92
72326;DHT22;60278;47.980;18.780;2022-09-09T07:06:22;19.70;82.00
72326;DHT22;60278;47.980;18.780;2022-09-09T07:09:55;20.38;80.19
72326;DHT22;60278;47.980;18.780;2022-09-09T07:13:26;21.02;77.29
72326;DHT22;60278;47.980;18.780;2022-09-09T07:16:59;20.89;77.70
72326;DHT22;60278;47.980;18.780;2022-09-09T07:20:34;21.73;75.29
72326;DHT22;60278;47.980;18.780;2022-09-09T07:24:06;22.47;71.95
72326;DHT22;60278;47.980;18.780;2022-09-09T07:27:38;23.30;70.81
72326;DHT22;60278;47.980;18.780;2022-09-09T07:31:30;23.96;67.71
72326;DHT22;60278;47.980;18.780;2022-09-09T07:35:02;23.18;69.10
72326;DHT22;60278;47.980;18.780;2022-09-09T07:38:41;22.89;70.79
72326;DHT22;60278;47.980;18.780;2022-09-09T07:42:14;22.02;72.56
72326;DHT22;60278;47.980;18.780;2022-09-09T07:45:45;23.08;71.08
72326;DHT22;60278;47.980;18.780;2022-09-09T07:49:18;23.37;68.06
72326;DHT22;60278;47.980;18.780;2022-09-09T07:52:53;22.28;72.41
72326;DHT22;60278;47.980;18.780;2022-09-09T07:56:26;22.47;71.10
72326;DHT22;60278;47.980;18.780;2022-09-09T07:59:58;22.47;73.15
72326;DHT22;60278;47.980;18.780;2022-09-09T08:03:29;21.97;72.65
72326;DHT22;60278;47.980;18.780;2022-09-09T08:07:01;21.66;73.23
72326;DHT22;60278;47.980;18.780;2022-09-09T08:10:37;21.91;71.98
72326;DHT22;60278;47.980;18.780;2022-09-09T08:14:10;22.68;69.48
72326;DHT22;60278;47.980;18.780;2022-09-09T08:17:42;22.01;71.07
72326;DHT22;60278;47.980;18.780;2022-09-09T08:21:16;22.08;72.34
72326;DHT22;60278;47.980;18.780;2022-09-09T08:24:48;22.31;71.47
72326;DHT22;60278;47.980;18.780;2022-09-09T08:28:19;22.05;71.68
72326;DHT22;60278;47.980;18.780;2022-09-09T08:31:55;22.15;70.98
72326;DHT22;60278;47.980;18.780;2022-09-09T08:35:28;21.78;71.31
72326;DHT22;60278;47.980;18.780;2022-09-09T08:39:05;21.88;71.94
72326;DHT22;60278;47.980;18.780;2022-09-09T08:42:44;21.80;70.17
72326;DHT22;60278;47.980;18.780;2022-09-09T08:46:27;22.35;69.64
72326;DHT22;60278;47.980;18.780;2022-09-09T08:53:58;22.32;68.38
72326;DHT22;60278;47.980;18.780;2022-09-09T08:57:32;22.17;67.50
72326;DHT22;60278;47.980;18.780;2022-09-09T09:05:30;22.34;66.17
72326;DHT22;60278;47.980;18.780;2022-09-09T09:12:54;22.68;66.33
72326;DHT22;60278;47.980;18.780;2022-09-09T09:16:32;23.02;65.93
72326;DHT22;60278;47.980;18.780;2022-09-09T09:20:12;22.79;65.77
72326;DHT22;60278;47.980;18.780;2022-09-09T09:23:54;22.85;64.16
72326;DHT22;60278;47.980;18.780;2022-09-09T09:27:33;22.58;63.94
72326;DHT22;60278;47.980;18.780;2022-09-09T09:31:12;22.93;64.82
72326;DHT22;60278;47.980;18.780;2022-09-09T09:34:55;23.31;63.76
72326;DHT22;60278;47.980;18.780;2022-09-09T09:38:28;22.85;62.49
72326;DHT22;60278;47.980;18.780;2022-09-09T09:42:11;23.20;62.22
72326;DHT22;60278;47.980;18.780;2022-09-09T09:45:45;23.61;63.77
72326;DHT22;60278;47.980;18.780;2022-09-09T09:49:18;23.08;62.91
72326;DHT22;60278;47.980;18.780;2022-09-09T09:53:05;23.57;61.79
72326;DHT22;60278;47.980;18.780;2022-09-09T09:56:42;23.48;61.28
72326;DHT22;60278;47.980;18.780;2022-09-09T10:00:17;23.41;62.04
72326;DHT22;60278;47.980;18.780;2022-09-09T10:04:02;23.84;60.96
72326;DHT22;60278;47.980;18.780;2022-09-09T10:07:35;23.85;59.91
72326;DHT22;60278;47.980;18.780;2022-09-09T10:15:29;23.85;60.18
72326;DHT22;60278;47.980;18.780;2022-09-09T10:19:10;23.85;59.90
72326;DHT22;60278;47.980;18.780;2022-09-09T10:22:47;24.08;58.06
72326;DHT22;60278;47.980;18.780;2022-09-09T10:53:37;29.11;46.43
72326;DHT22;60278;47.980;18.780;2022-09-09T11:01:14;28.84;46.69
72326;DHT22;60278;47.980;18.780;2022-09-09T11:05:10;28.86;46.45
72326;DHT22;60278;47.980;18.780;2022-09-09T11:08:46;29.25;45.20
72326;DHT22;60278;47.980;18.780;2022-09-09T11:12:19;29.75;44.18
72326;DHT22;60278;47.980;18.780;2022-09-09T11:15:54;30.54;45.05
72326;DHT22;60278;47.980;18.780;2022-09-09T11:19:41;31.02;42.99
72326;DHT22;60278;47.980;18.780;2022-09-09T11:23:19;29.10;46.19
72326;DHT22;60278;47.980;18.780;2022-09-09T11:26:57;28.28;47.21
72326;DHT22;60278;47.980;18.780;2022-09-09T11:30:34;27.83;48.39
72326;DHT22;60278;47.980;18.780;2022-09-09T11:41:40;26.96;48.81
72326;DHT22;60278;47.980;18.780;2022-09-09T11:45:28;26.67;49.05
72326;DHT22;60278;47.980;18.780;2022-09-09T11:49:01;27.51;48.18
72326;DHT22;60278;47.980;18.780;2022-09-09T11:52:38;28.43;46.31
72326;DHT22;60278;47.980;18.780;2022-09-09T11:56:12;28.45;45.36
72326;DHT22;60278;47.980;18.780;2022-09-09T11:59:50;28.70;45.67
72326;DHT22;60278;47.980;18.780;2022-09-09T12:03:48;28.83;44.93
72326;DHT22;60278;47.980;18.780;2022-09-09T12:11:00;28.25;45.32
72326;DHT22;60278;47.980;18.780;2022-09-09T12:18:16;27.53;44.79
72326;DHT22;60278;47.980;18.780;2022-09-09T12:22:07;28.18;43.63
72326;DHT22;60278;47.980;18.780;2022-09-09T12:33:02;28.00;45.01
72326;DHT22;60278;47.980;18.780;2022-09-09T12:36:33;27.47;45.49
72326;DHT22;60278;47.980;18.780;2022-09-09T12:40:34;26.74;45.74
72326;DHT22;60278;47.980;18.780;2022-09-09T12:44:10;27.54;45.87
72326;DHT22;60278;47.980;18.780;2022-09-09T12:51:30;27.10;48.07
72326;DHT22;60278;47.980;18.780;2022-09-09T12:55:03;27.05;47.96
72326;DHT22;60278;47.980;18.780;2022-09-09T12:58:36;27.13;47.72
72326;DHT22;60278;47.980;18.780;2022-09-09T13:02:21;26.81;48.04
72326;DHT22;60278;47.980;18.780;2022-09-09T13:05:53;26.99;48.34
72326;DHT22;60278;47.980;18.780;2022-09-09T13:09:31;27.39;47.77
72326;DHT22;60278;47.980;18.780;2022-09-09T13:13:02;27.55;47.00
72326;DHT22;60278;47.980;18.780;2022-09-09T13:16:35;27.58;46.34
72326;DHT22;60278;47.980;18.780;2022-09-09T13:20:14;27.02;45.62
72326;DHT22;60278;47.980;18.780;2022-09-09T13:23:50;26.86;46.12
72326;DHT22;60278;47.980;18.780;2022-09-09T13:27:27;26.55;46.41
72326;DHT22;60278;47.980;18.780;2022-09-09T13:31:00;26.82;45.22
72326;DHT22;60278;47.980;18.780;2022-09-09T13:34:34;26.59;47.74
72326;DHT22;60278;47.980;18.780;2022-09-09T13:38:08;26.34;47.50
72326;DHT22;60278;47.980;18.780;2022-09-09T13:41:43;26.12;47.95
72326;DHT22;60278;47.980;18.780;2022-09-09T13:45:18;26.24;48.95
72326;DHT22;60278;47.980;18.780;2022-09-09T13:48:59;26.24;48.58
72326;DHT22;60278;47.980;18.780;2022-09-09T13:52:30;25.86;47.59
72326;DHT22;60278;47.980;18.780;2022-09-09T13:56:02;25.89;49.21
72326;DHT22;60278;47.980;18.780;2022-09-09T13:59:33;25.94;48.32
72326;DHT22;60278;47.980;18.780;2022-09-09T14:03:05;25.93;47.99
72326;DHT22;60278;47.980;18.780;2022-09-09T14:06:38;26.24;47.69
72326;DHT22;60278;47.980;18.780;2022-09-09T14:10:10;26.31;46.02
72326;DHT22;60278;47.980;18.780;2022-09-09T14:13:41;26.33;47.80
72326;DHT22;60278;47.980;18.780;2022-09-09T14:17:12;26.45;48.01
72326;DHT22;60278;47.980;18.780;2022-09-09T14:20:45;25.98;48.23
72326;DHT22;60278;47.980;18.780;2022-09-09T14:24:16;25.77;48.55
72326;DHT22;60278;47.980;18.780;2022-09-09T14:27:47;25.83;48.68
72326;DHT22;60278;47.980;18.780;2022-09-09T14:31:18;25.66;49.19
72326;DHT22;60278;47.980;18.780;2022-09-09T14:34:49;25.66;49.27
72326;DHT22;60278;47.980;18.780;2022-09-09T14:38:22;25.47;49.00
72326;DHT22;60278;47.980;18.780;2022-09-09T14:41:53;25.47;49.10
72326;DHT22;60278;47.980;18.780;2022-09-09T14:45:25;25.62;49.40
72326;DHT22;60278;47.980;18.780;2022-09-09T14:48:56;25.67;48.34
72326;DHT22;60278;47.980;18.780;2022-09-09T14:52:29;25.92;49.35
72326;DHT22;60278;47.980;18.780;2022-09-09T14:56:08;25.69;48.65
72326;DHT22;60278;47.980;18.780;2022-09-09T14:59:40;25.55;49.62
72326;DHT22;60278;47.980;18.780;2022-09-09T15:03:11;25.22;48.50
72326;DHT22;60278;47.980;18.780;2022-09-09T15:06:42;25.18;49.06
72326;DHT22;60278;47.980;18.780;2022-09-09T15:10:17;25.12;49.44
72326;DHT22;60278;47.980;18.780;2022-09-09T15:13:51;25.24;50.48
72326;DHT22;60278;47.980;18.780;2022-09-09T15:17:23;25.31;50.09
72326;DHT22;60278;47.980;18.780;2022-09-09T15:20:57;25.34;50.09
72326;DHT22;60278;47.980;18.780;2022-09-09T15:24:29;25.24;49.40
72326;DHT22;60278;47.980;18.780;2022-09-09T15:28:00;25.11;50.33
72326;DHT22;60278;47.980;18.780;2022-09-09T15:31:31;24.91;50.41
72326;DHT22;60278;47.980;18.780;2022-09-09T15:35:02;24.77;51.41
72326;DHT22;60278;47.980;18.780;2022-09-09T15:38:33;24.67;53.04
72326;DHT22;60278;47.980;18.780;2022-09-09T15:42:04;24.64;51.91
72326;DHT22;60278;47.980;18.780;2022-09-09T15:45:37;24.64;52.48
72326;DHT22;60278;47.980;18.780;2022-09-09T15:49:19;24.57;52.79
72326;DHT22;60278;47.980;18.780;2022-09-09T15:52:52;24.50;53.05
72326;DHT22;60278;47.980;18.780;2022-09-09T15:56:25;24.46;53.30
72326;DHT22;60278;47.980;18.780;2022-09-09T15:59:57;24.32;54.54
72326;DHT22;60278;47.980;18.780;2022-09-09T16:03:37;24.15;54.94
72326;DHT22;60278;47.980;18.780;2022-09-09T16:07:08;24.02;55.49
72326;DHT22;60278;47.980;18.780;2022-09-09T16:10:39;23.92;56.38
72326;DHT22;60278;47.980;18.780;2022-09-09T16:14:11;23.85;56.69
72326;DHT22;60278;47.980;18.780;2022-09-09T16:17:42;23.75;58.81
72326;DHT22;60278;47.980;18.780;2022-09-09T16:21:27;23.67;58.59
72326;DHT22;60278;47.980;18.780;2022-09-09T16:25:02;23.62;59.25
72326;DHT22;60278;47.980;18.780;2022-09-09T16:28:33;23.51;60.50
72326;DHT22;60278;47.980;18.780;2022-09-09T16:32:04;23.47;60.72
72326;DHT22;60278;47.980;18.780;2022-09-09T16:35:38;23.34;60.62
72326;DHT22;60278;47.980;18.780;2022-09-09T16:39:12;23.33;59.46
72326;DHT22;60278;47.980;18.780;2022-09-09T16:42:43;23.23;60.42
72326;DHT22;60278;47.980;18.780;2022-09-09T16:46:17;23.10;60.07
72326;DHT22;60278;47.980;18.780;2022-09-09T16:49:48;23.07;59.94
72326;DHT22;60278;47.980;18.780;2022-09-09T16:53:19;23.17;58.73
72326;DHT22;60278;47.980;18.780;2022-09-09T16:56:50;23.04;59.40
72326;DHT22;60278;47.980;18.780;2022-09-09T17:00:22;22.93;58.74
72326;DHT22;60278;47.980;18.780;2022-09-09T17:03:55;22.86;60.28
72326;DHT22;60278;47.980;18.780;2022-09-09T17:07:26;22.83;60.05
72326;DHT22;60278;47.980;18.780;2022-09-09T17:10:58;22.73;60.36
72326;DHT22;60278;47.980;18.780;2022-09-09T17:14:29;22.68;60.70
72326;DHT22;60278;47.980;18.780;2022-09-09T17:18:01;22.69;60.27
72326;DHT22;60278;47.980;18.780;2022-09-09T17:21:32;22.70;60.32
72326;DHT22;60278;47.980;18.780;2022-09-09T17:25:04;22.65;60.24
72326;DHT22;60278;47.980;18.780;2022-09-09T17:28:36;22.52;61.53
72326;DHT22;60278;47.980;18.780;2022-09-09T17:32:09;22.45;62.22
72326;DHT22;60278;47.980;18.780;2022-09-09T17:35:44;22.45;61.41
72326;DHT22;60278;47.980;18.780;2022-09-09T17:39:15;22.41;61.98
72326;DHT22;60278;47.980;18.780;2022-09-09T17:42:46;22.47;61.57
72326;DHT22;60278;47.980;18.780;2022-09-09T17:46:23;22.48;61.35
72326;DHT22;60278;47.980;18.780;2022-09-09T17:49:54;22.49;61.45
72326;DHT22;60278;47.980;18.780;2022-09-09T17:53:25;22.41;61.62
72326;DHT22;60278;47.980;18.780;2022-09-09T17:56:56;22.38;61.83
72326;DHT22;60278;47.980;18.780;2022-09-09T18:00:28;22.28;62.06
72326;DHT22;60278;47.980;18.780;2022-09-09T18:04:03;22.08;64.77
72326;DHT22;60278;47.980;18.780;2022-09-09T18:07:34;21.96;64.92
72326;DHT22;60278;47.980;18.780;2022-09-09T18:11:06;22.01;63.37
72326;DHT22;60278;47.980;18.780;2022-09-09T18:14:37;22.02;64.30
72326;DHT22;60278;47.980;18.780;2022-09-09T18:18:08;21.73;65.81
72326;DHT22;60278;47.980;18.780;2022-09-09T18:21:40;21.66;65.44
72326;DHT22;60278;47.980;18.780;2022-09-09T18:25:11;21.59;67.04
72326;DHT22;60278;47.980;18.780;2022-09-09T18:28:47;21.40;67.83
72326;DHT22;60278;47.980;18.780;2022-09-09T18:32:18;21.15;68.16
72326;DHT22;60278;47.980;18.780;2022-09-09T18:35:49;21.15;67.92
72326;DHT22;60278;47.980;18.780;2022-09-09T18:39:23;21.15;67.73
72326;DHT22;60278;47.980;18.780;2022-09-09T18:42:54;21.06;68.76
72326;DHT22;60278;47.980;18.780;2022-09-09T18:46:30;20.98;69.37
72326;DHT22;60278;47.980;18.780;2022-09-09T18:50:03;20.82;71.32
72326;DHT22;60278;47.980;18.780;2022-09-09T18:53:34;20.81;71.97
72326;DHT22;60278;47.980;18.780;2022-09-09T18:57:06;20.57;73.51
72326;DHT22;60278;47.980;18.780;2022-09-09T19:00:37;20.51;72.60
72326;DHT22;60278;47.980;18.780;2022-09-09T19:04:08;20.48;73.55
72326;DHT22;60278;47.980;18.780;2022-09-09T19:07:39;20.50;73.37
72326;DHT22;60278;47.980;18.780;2022-09-09T19:11:14;20.40;73.20
72326;DHT22;60278;47.980;18.780;2022-09-09T19:14:48;20.34;72.54
72326;DHT22;60278;47.980;18.780;2022-09-09T19:18:20;20.47;73.30
72326;DHT22;60278;47.980;18.780;2022-09-09T19:21:51;20.21;74.25
72326;DHT22;60278;47.980;18.780;2022-09-09T19:25:23;20.36;73.83
72326;DHT22;60278;47.980;18.780;2022-09-09T19:28:58;20.27;73.63
72326;DHT22;60278;47.980;18.780;2022-09-09T19:32:30;20.17;74.86
72326;DHT22;60278;47.980;18.780;2022-09-09T19:36:04;20.13;75.01
72326;DHT22;60278;47.980;18.780;2022-09-09T19:39:36;20.06;75.32
72326;DHT22;60278;47.980;18.780;2022-09-09T19:43:07;19.93;75.88
72326;DHT22;60278;47.980;18.780;2022-09-09T19:46:41;19.82;76.26
72326;DHT22;60278;47.980;18.780;2022-09-09T19:50:12;19.83;76.43
72326;DHT22;60278;47.980;18.780;2022-09-09T19:53:46;19.83;76.51
72326;DHT22;60278;47.980;18.780;2022-09-09T19:57:18;19.92;76.34
72326;DHT22;60278;47.980;18.780;2022-09-09T20:00:49;19.78;76.53
72326;DHT22;60278;47.980;18.780;2022-09-09T20:04:21;19.85;76.49
72326;DHT22;60278;47.980;18.780;2022-09-09T20:07:52;19.96;76.46
72326;DHT22;60278;47.980;18.780;2022-09-09T20:11:24;19.94;75.33
72326;DHT22;60278;47.980;18.780;2022-09-09T20:14:55;19.89;76.00
72326;DHT22;60278;47.980;18.780;2022-09-09T20:18:28;19.76;77.20
72326;DHT22;60278;47.980;18.780;2022-09-09T20:22:01;19.72;76.45
72326;DHT22;60278;47.980;18.780;2022-09-09T20:25:35;19.82;75.65
72326;DHT22;60278;47.980;18.780;2022-09-09T20:29:10;19.85;75.96
72326;DHT22;60278;47.980;18.780;2022-09-09T20:32:41;19.76;77.01
72326;DHT22;60278;47.980;18.780;2022-09-09T20:39:45;19.90;75.19
72326;DHT22;60278;47.980;18.780;2022-09-09T20:43:16;19.89;75.88
72326;DHT22;60278;47.980;18.780;2022-09-09T20:46:50;19.87;75.99
72326;DHT22;60278;47.980;18.780;2022-09-09T20:50:22;19.75;76.93
72326;DHT22;60278;47.980;18.780;2022-09-09T20:53:58;19.79;77.70
72326;DHT22;60278;47.980;18.780;2022-09-09T20:57:29;19.30;79.61
72326;DHT22;60278;47.980;18.780;2022-09-09T21:01:02;19.14;79.51
72326;DHT22;60278;47.980;18.780;2022-09-09T21:04:33;19.20;79.78
72326;DHT22;60278;47.980;18.780;2022-09-09T21:08:05;19.12;79.90
72326;DHT22;60278;47.980;18.780;2022-09-09T21:11:36;19.11;79.41
72326;DHT22;60278;47.980;18.780;2022-09-09T21:15:08;19.52;78.50
72326;DHT22;60278;47.980;18.780;2022-09-09T21:18:40;19.51;78.72
72326;DHT22;60278;47.980;18.780;2022-09-09T21:22:13;19.57;78.40
72326;DHT22;60278;47.980;18.780;2022-09-09T21:25:45;19.47;78.74
72326;DHT22;60278;47.980;18.780;2022-09-09T21:29:17;19.61;78.86
72326;DHT22;60278;47.980;18.780;2022-09-09T21:32:48;19.70;78.10
72326;DHT22;60278;47.980;18.780;2022-09-09T21:36:19;19.44;79.36
72326;DHT22;60278;47.980;18.780;2022-09-09T21:39:50;19.42;79.93
72326;DHT22;60278;47.980;18.780;2022-09-09T21:43:21;19.63;79.09
72326;DHT22;60278;47.980;18.780;2022-09-09T21:46:53;19.65;79.01
72326;DHT22;60278;47.980;18.780;2022-09-09T21:50:24;19.65;79.21
72326;DHT22;60278;47.980;18.780;2022-09-09T21:53:55;19.62;78.79
72326;DHT22;60278;47.980;18.780;2022-09-09T21:57:26;19.54;79.41
72326;DHT22;60278;47.980;18.780;2022-09-09T22:00:57;19.39;79.39
72326;DHT22;60278;47.980;18.780;2022-09-09T22:04:28;19.21;80.67
72326;DHT22;60278;47.980;18.780;2022-09-09T22:07:59;19.45;79.93
72326;DHT22;60278;47.980;18.780;2022-09-09T22:11:30;19.42;80.11
72326;DHT22;60278;47.980;18.780;2022-09-09T22:15:02;19.32;80.03
72326;DHT22;60278;47.980;18.780;2022-09-09T22:18:33;19.28;79.87
72326;DHT22;60278;47.980;18.780;2022-09-09T22:22:05;19.28;80.49
72326;DHT22;60278;47.980;18.780;2022-09-09T22:25:37;19.11;81.60
72326;DHT22;60278;47.980;18.780;2022-09-09T22:29:08;19.25;80.83
72326;DHT22;60278;47.980;18.780;2022-09-09T22:32:39;19.17;80.69
72326;DHT22;60278;47.980;18.780;2022-09-09T22:36:10;19.11;81.12
72326;DHT22;60278;47.980;18.780;2022-09-09T22:39:42;19.11;80.61
72326;DHT22;60278;47.980;18.780;2022-09-09T22:43:16;19.22;80.51
72326;DHT22;60278;47.980;18.780;2022-09-09T22:46:49;19.01;80.97
72326;DHT22;60278;47.980;18.780;2022-09-09T22:50:20;19.22;80.32
72326;DHT22;60278;47.980;18.780;2022-09-09T22:53:51;19.27;79.96
72326;DHT22;60278;47.980;18.780;2022-09-09T22:57:22;19.15;80.98
72326;DHT22;60278;47.980;18.780;2022-09-09T23:00:54;19.00;81.82
72326;DHT22;60278;47.980;18.780;2022-09-09T23:04:28;18.86;82.25
72326;DHT22;60278;47.980;18.780;2022-09-09T23:08:00;18.79;82.39
72326;DHT22;60278;47.980;18.780;2022-09-09T23:11:33;18.89;82.15
72326;DHT22;60278;47.980;18.780;2022-09-09T23:15:07;18.91;81.99
72326;DHT22;60278;47.980;18.780;2022-09-09T23:18:40;18.94;82.47
72326;DHT22;60278;47.980;18.780;2022-09-09T23:22:11;18.96;82.29
72326;DHT22;60278;47.980;18.780;2022-09-09T23:25:44;18.84;82.37
72326;DHT22;60278;47.980;18.780;2022-09-09T23:29:15;18.79;82.48
72326;DHT22;60278;47.980;18.780;2022-09-09T23:32:49;18.74;82.89
72326;DHT22;60278;47.980;18.780;2022-09-09T23:36:22;18.66;83.27
72326;DHT22;60278;47.980;18.780;2022-09-09T23:39:54;18.53;84.29
72326;DHT22;60278;47.980;18.780;2022-09-09T23:43:25;18.64;83.92
72326;DHT22;60278;47.980;18.780;2022-09-09T23:46:56;18.42;84.79
72326;DHT22;60278;47.980;18.780;2022-09-09T23:50:27;18.64;84.00
72326;DHT22;60278;47.980;18.780;2022-09-09T23:54:00;18.60;84.17
72326;DHT22;60278;47.980;18.780;2022-09-09T23:57:32;18.57;84.72
